Time;durP1;ratioP1;P1;durP2;ratioP2;P2;SDS_P1;SDS_P2;PMS_P1;PMS_P2;Temp;Humidity;BMP_temperature;BMP_pressure;BME280_temperature;BME280_humidity;BME280_pressure;Samples;Min_cycle;Max_cycle;Signal;HPM_P1;HPM_P2
2023/06/13 00:01:30;;;;;;;1.98;0.52;;;19.40;91.90;;;;;;5023626;28;20033;-79
2023/06/13 00:03:56;;;;;;;2.13;0.60;;;19.30;92.00;;;;;;5041788;28;20470;-78
2023/06/13 00:06:23;;;;;;;1.35;0.60;;;19.20;92.00;;;;;;5009314;28;20032;-79
2023/06/13 00:08:48;;;;;;;1.40;0.50;;;19.20;91.90;;;;;;5024252;28;20022;-79
2023/06/13 00:11:14;;;;;;;3.00;0.50;;;19.20;92.10;;;;;;5011907;28;20496;-78
2023/06/13 00:13:40;;;;;;;1.70;0.50;;;19.10;91.90;;;;;;5024918;28;20037;-78
2023/06/13 00:16:06;;;;;;;3.47;0.80;;;19.10;92.20;;;;;;5022653;28;20041;-78
2023/06/13 00:18:32;;;;;;;1.80;0.73;;;19.00;92.30;;;;;;5023375;28;20553;-78
2023/06/13 00:20:59;;;;;;;1.20;0.50;;;19.00;92.30;;;;;;5010992;28;20041;-78
2023/06/13 00:23:27;;;;;;;2.10;0.60;;;19.00;92.40;;;;;;5021734;28;20038;-79
2023/06/13 00:25:53;;;;;;;2.22;0.60;;;18.90;92.30;;;;;;5024210;28;20025;-78
2023/06/13 00:28:19;;;;;;;1.80;0.70;;;18.90;92.60;;;;;;5023901;28;20040;-79
2023/06/13 00:30:45;;;;;;;2.22;0.80;;;18.90;92.50;;;;;;5036907;28;20029;-78
2023/06/13 00:33:15;;;;;;;1.77;0.50;;;18.80;92.60;;;;;;5009778;28;20032;-78
2023/06/13 00:35:44;;;;;;;1.50;0.70;;;18.80;92.80;;;;;;5027385;28;20414;-78
2023/06/13 00:38:12;;;;;;;1.80;0.80;;;18.80;92.70;;;;;;5004677;28;20124;-78
2023/06/13 00:40:39;;;;;;;1.23;0.52;;;18.80;92.90;;;;;;5026678;28;20049;-78
2023/06/13 00:43:05;;;;;;;2.22;0.63;;;18.70;92.80;;;;;;5026318;28;20076;-79
2023/06/13 00:45:33;;;;;;;1.88;0.70;;;18.70;93.00;;;;;;5024629;28;20152;-78
2023/06/13 00:48:04;;;;;;;1.60;0.60;;;18.70;93.00;;;;;;5007143;28;20180;-79
2023/06/13 00:50:34;;;;;;;2.13;0.70;;;18.60;92.80;;;;;;5006174;28;20030;-79
2023/06/13 00:53:09;;;;;;;1.90;0.80;;;18.60;93.40;;;;;;5019534;28;20057;-78
2023/06/13 00:55:36;;;;;;;1.83;0.70;;;18.60;93.20;;;;;;5022081;28;20048;-79
2023/06/13 00:58:06;;;;;;;2.95;0.63;;;18.60;93.30;;;;;;5026980;28;20406;-79
2023/06/13 01:00:33;;;;;;;2.42;0.63;;;18.50;93.20;;;;;;5034912;28;20041;-78
2023/06/13 01:03:00;;;;;;;1.60;0.70;;;18.50;93.40;;;;;;5026631;28;20025;-78
2023/06/13 01:05:28;;;;;;;1.33;0.80;;;18.50;93.40;;;;;;5037359;28;20056;-78
2023/06/13 01:07:57;;;;;;;1.83;0.60;;;18.50;93.50;;;;;;5008526;28;20505;-78
2023/06/13 01:10:29;;;;;;;2.95;1.10;;;18.40;93.70;;;;;;5026123;28;20359;-79
2023/06/13 01:13:36;;;;;;;1.88;0.60;;;18.40;93.70;;;;;;5032955;28;20393;-78
2023/06/13 01:16:15;;;;;;;1.35;0.70;;;18.40;93.80;;;;;;5002694;28;20034;-78
2023/06/13 01:18:49;;;;;;;3.58;0.90;;;18.30;93.20;;;;;;5021404;28;20026;-79
2023/06/13 01:21:18;;;;;;;1.40;0.60;;;18.30;94.00;;;;;;5008243;28;20088;-78
2023/06/13 01:23:52;;;;;;;1.98;0.70;;;18.20;94.00;;;;;;5032811;28;20057;-78
2023/06/13 01:26:42;;;;;;;2.00;0.70;;;18.20;94.10;;;;;;5024901;28;20044;-78
2023/06/13 01:29:09;;;;;;;1.80;0.90;;;18.10;94.20;;;;;;5022125;28;20099;-78
2023/06/13 01:31:36;;;;;;;1.50;0.70;;;18.10;94.10;;;;;;5021872;28;20120;-78
2023/06/13 01:34:02;;;;;;;1.85;0.80;;;18.10;94.30;;;;;;5021358;28;20355;-79
2023/06/13 01:36:29;;;;;;;1.50;0.70;;;18.00;94.30;;;;;;5022603;28;20025;-78
2023/06/13 01:38:55;;;;;;;2.50;0.75;;;17.90;94.90;;;;;;5007585;28;20025;-78
2023/06/13 01:41:21;;;;;;;1.98;0.60;;;17.80;95.40;;;;;;5009349;28;20034;-78
2023/06/13 01:43:46;;;;;;;2.10;0.60;;;17.60;95.80;;;;;;5020235;28;20022;-78
2023/06/13 01:46:44;;;;;;;1.88;0.68;;;17.50;95.80;;;;;;5022567;28;20053;-78
2023/06/13 01:49:24;;;;;;;1.33;0.70;;;17.50;96.00;;;;;;5025356;28;20496;-78
2023/06/13 01:52:14;;;;;;;1.83;0.73;;;17.30;96.00;;;;;;5037743;28;20476;-78
2023/06/13 01:54:45;;;;;;;;;;;17.30;96.20;;;;;;5023289;28;20021;-78
2023/06/13 01:57:15;;;;;;;1.42;0.63;;;17.20;96.50;;;;;;5024555;28;20051;-78
2023/06/13 01:59:43;;;;;;;2.20;0.70;;;17.10;96.70;;;;;;5004967;28;20087;-78
2023/06/13 02:02:09;;;;;;;2.40;0.88;;;17.00;96.90;;;;;;5021899;28;20022;-78
2023/06/13 02:04:40;;;;;;;2.60;0.90;;;16.90;97.40;;;;;;5025080;28;20105;-79
2023/06/13 02:07:06;;;;;;;2.38;0.90;;;16.90;97.20;;;;;;5021791;28;20386;-78
2023/06/13 02:09:31;;;;;;;2.45;0.98;;;16.90;97.20;;;;;;5024541;28;20466;-78
2023/06/13 02:11:57;;;;;;;2.03;0.88;;;16.90;97.10;;;;;;5023414;28;20123;-78
2023/06/13 02:14:23;;;;;;;3.90;0.80;;;16.80;97.30;;;;;;5026270;28;20084;-78
2023/06/13 02:16:49;;;;;;;1.95;0.90;;;16.80;97.20;;;;;;5004898;28;20391;-78
2023/06/13 02:19:14;;;;;;;2.40;0.88;;;16.90;97.00;;;;;;5038354;28;20064;-78
2023/06/13 02:21:48;;;;;;;2.15;0.95;;;16.70;97.40;;;;;;5022304;28;20497;-78
2023/06/13 02:24:18;;;;;;;2.80;1.10;;;16.70;97.50;;;;;;5025993;28;20025;-78
2023/06/13 02:26:44;;;;;;;2.42;0.80;;;16.60;97.50;;;;;;5025694;28;20037;-78
2023/06/13 02:29:10;;;;;;;2.20;1.00;;;16.50;98.10;;;;;;5023515;28;20068;-78
2023/06/13 02:31:37;;;;;;;2.25;0.90;;;16.40;98.40;;;;;;5007865;28;20061;-78
2023/06/13 02:34:04;;;;;;;5.22;1.40;;;16.30;98.70;;;;;;5024139;28;20105;-78
2023/06/13 02:36:30;;;;;;;1.92;0.68;;;16.30;98.60;;;;;;5025599;28;20087;-78
2023/06/13 02:38:55;;;;;;;2.10;0.90;;;16.30;98.50;;;;;;5012213;28;20030;-78
2023/06/13 02:41:21;;;;;;;2.55;0.80;;;16.30;98.50;;;;;;5029023;28;20035;-78
2023/06/13 02:43:47;;;;;;;1.70;0.95;;;16.10;99.30;;;;;;5026549;28;20033;-78
2023/06/13 02:46:13;;;;;;;2.38;0.93;;;16.00;99.40;;;;;;5010111;28;20039;-78
2023/06/13 02:48:38;;;;;;;1.90;0.70;;;16.00;99.40;;;;;;5024360;28;20100;-78
2023/06/13 02:51:07;;;;;;;4.05;0.90;;;16.00;99.60;;;;;;5012661;28;20556;-78
2023/06/13 02:53:33;;;;;;;2.45;0.80;;;15.90;99.50;;;;;;5024728;28;20025;-78
2023/06/13 02:55:59;;;;;;;2.47;1.10;;;15.90;99.40;;;;;;5025322;28;20030;-78
2023/06/13 02:58:25;;;;;;;1.85;0.95;;;15.90;99.80;;;;;;5039013;28;20034;-79
2023/06/13 03:00:51;;;;;;;3.47;1.17;;;15.80;99.90;;;;;;5025248;28;20025;-77
2023/06/13 03:03:20;;;;;;;3.42;1.00;;;15.70;99.90;;;;;;5013239;28;20029;-78
2023/06/13 03:05:56;;;;;;;2.72;0.90;;;15.70;99.90;;;;;;5028471;28;20395;-78
2023/06/13 03:08:26;;;;;;;4.43;1.38;;;15.70;99.90;;;;;;5036160;28;20112;-77
2023/06/13 03:10:53;;;;;;;1.73;0.80;;;15.70;99.90;;;;;;5026515;28;20037;-78
2023/06/13 03:13:22;;;;;;;1.95;0.90;;;15.60;99.90;;;;;;5010224;28;20041;-78
2023/06/13 03:15:51;;;;;;;2.30;1.10;;;15.50;99.90;;;;;;5025004;28;20034;-78
2023/06/13 03:18:18;;;;;;;2.50;1.00;;;15.50;99.90;;;;;;5011794;28;20087;-78
2023/06/13 03:20:47;;;;;;;3.70;0.98;;;15.50;99.90;;;;;;5011281;28;20021;-78
2023/06/13 03:23:18;;;;;;;1.70;0.80;;;15.40;99.90;;;;;;5024604;28;20053;-78
2023/06/13 03:25:44;;;;;;;2.08;0.88;;;15.50;99.90;;;;;;5005429;28;20033;-78
2023/06/13 03:28:11;;;;;;;1.70;0.80;;;15.40;99.90;;;;;;5011250;28;20503;-77
2023/06/13 03:30:37;;;;;;;3.40;1.60;;;15.30;99.90;;;;;;5010640;28;20048;-78
2023/06/13 03:33:03;;;;;;;2.50;1.20;;;15.30;99.90;;;;;;5005130;28;20037;-78
2023/06/13 03:35:32;;;;;;;3.25;1.13;;;15.20;99.90;;;;;;5040113;28;20029;-78
2023/06/13 03:37:58;;;;;;;3.05;1.00;;;15.30;99.90;;;;;;5027797;28;20359;-78
2023/06/13 03:40:27;;;;;;;2.63;1.17;;;15.30;99.90;;;;;;5009409;28;20035;-79
2023/06/13 03:42:52;;;;;;;2.42;0.98;;;15.20;99.90;;;;;;5038318;28;20021;-78
2023/06/13 03:45:19;;;;;;;4.57;1.15;;;15.40;99.90;;;;;;5023234;28;20030;-78
2023/06/13 03:47:45;;;;;;;2.15;1.00;;;15.40;99.90;;;;;;5039747;28;20040;-77
2023/06/13 03:50:11;;;;;;;2.80;1.15;;;15.40;99.90;;;;;;5027193;28;20034;-78
2023/06/13 03:52:37;;;;;;;2.75;1.20;;;15.50;99.90;;;;;;5023895;28;20067;-78
2023/06/13 03:55:03;;;;;;;2.75;1.42;;;15.50;99.90;;;;;;5042373;28;20026;-77
2023/06/13 03:57:31;;;;;;;2.45;1.40;;;15.60;99.90;;;;;;5031872;28;20029;-77
2023/06/13 03:59:59;;;;;;;2.83;0.90;;;15.50;99.90;;;;;;5010437;28;20441;-77
2023/06/13 04:02:25;;;;;;;2.10;1.33;;;15.50;99.90;;;;;;5033787;28;20789;-76
2023/06/13 04:04:52;;;;;;;3.63;1.30;;;15.50;99.90;;;;;;5022239;28;20037;-76
2023/06/13 04:07:21;;;;;;;4.30;1.67;;;15.60;99.90;;;;;;5036677;28;20606;-77
2023/06/13 04:09:47;;;;;;;2.47;1.15;;;15.50;99.90;;;;;;5038927;28;20040;-77
2023/06/13 04:12:14;;;;;;;3.25;1.30;;;15.50;99.90;;;;;;5023377;28;20037;-77
2023/06/13 04:14:40;;;;;;;2.97;0.90;;;15.50;99.90;;;;;;5024413;28;20029;-76
2023/06/13 04:17:08;;;;;;;2.95;1.20;;;15.60;99.90;;;;;;5023636;28;20045;-77
2023/06/13 04:19:34;;;;;;;2.40;1.30;;;15.60;99.90;;;;;;5023299;28;20717;-77
2023/06/13 04:22:01;;;;;;;2.78;1.20;;;15.70;99.90;;;;;;5008287;28;20041;-77
2023/06/13 04:24:27;;;;;;;2.15;1.20;;;15.70;99.90;;;;;;5020218;28;20057;-78
2023/06/13 04:26:53;;;;;;;2.40;1.20;;;15.80;99.90;;;;;;5036007;28;20065;-78
2023/06/13 04:29:20;;;;;;;5.47;1.42;;;15.80;99.90;;;;;;5024858;28;20041;-77
2023/06/13 04:31:46;;;;;;;4.45;1.70;;;16.00;99.90;;;;;;5006672;28;20065;-77
2023/06/13 04:34:13;;;;;;;2.70;1.30;;;16.00;99.90;;;;;;5024920;28;20084;-77
2023/06/13 04:36:41;;;;;;;2.63;0.98;;;16.10;99.90;;;;;;5003803;28;20045;-77
2023/06/13 04:39:08;;;;;;;3.20;1.67;;;16.20;99.90;;;;;;5019109;28;20029;-77
2023/06/13 04:41:34;;;;;;;1.95;1.00;;;16.30;99.90;;;;;;5007307;28;20391;-77
2023/06/13 04:44:10;;;;;;;3.08;1.08;;;16.40;99.90;;;;;;5025068;28;20030;-78
2023/06/13 04:46:38;;;;;;;2.80;1.02;;;16.40;99.90;;;;;;5005154;28;20061;-78
2023/06/13 04:49:08;;;;;;;6.10;1.85;;;16.60;99.90;;;;;;5009596;28;20029;-77
2023/06/13 04:51:34;;;;;;;3.10;1.80;;;16.60;99.90;;;;;;5006663;28;20051;-77
2023/06/13 04:54:00;;;;;;;2.95;1.60;;;16.90;99.90;;;;;;5038419;28;20071;-77
2023/06/13 04:56:27;;;;;;;1.98;0.88;;;17.20;99.90;;;;;;5024585;28;20080;-78
2023/06/13 04:58:55;;;;;;;2.05;1.45;;;17.40;99.90;;;;;;5022984;28;20040;-77
2023/06/13 05:01:21;;;;;;;2.40;1.65;;;17.50;99.90;;;;;;5020092;28;20088;-77
2023/06/13 05:03:51;;;;;;;3.88;1.42;;;17.70;99.90;;;;;;5038280;28;20100;-77
2023/06/13 05:06:17;;;;;;;2.35;1.23;;;17.90;99.90;;;;;;5009059;28;20116;-78
2023/06/13 05:08:43;;;;;;;2.30;1.65;;;17.90;99.90;;;;;;5001404;28;20042;-78
2023/06/13 05:11:08;;;;;;;2.78;1.23;;;18.00;99.90;;;;;;4981174;28;20541;-77
2023/06/13 05:13:34;;;;;;;4.78;1.13;;;18.20;99.90;;;;;;4992264;28;20478;-77
2023/06/13 05:16:00;;;;;;;2.50;1.27;;;18.40;99.90;;;;;;4994193;28;20030;-77
2023/06/13 05:18:29;;;;;;;3.25;1.40;;;18.60;99.50;;;;;;4993576;28;20743;-78
2023/06/13 05:20:56;;;;;;;4.80;1.27;;;18.70;99.90;;;;;;4976986;28;20453;-76
2023/06/13 05:23:23;;;;;;;2.45;1.02;;;18.80;99.10;;;;;;4991403;28;20376;-77
2023/06/13 05:25:48;;;;;;;2.88;1.38;;;18.80;99.60;;;;;;4993574;28;20086;-78
2023/06/13 05:28:16;;;;;;;2.28;1.13;;;18.90;99.40;;;;;;4993162;28;20557;-78
2023/06/13 05:30:42;;;;;;;2.35;1.40;;;19.00;99.40;;;;;;5010829;28;20422;-78
2023/06/13 05:33:08;;;;;;;2.97;1.30;;;19.00;99.50;;;;;;4994904;28;20125;-77
2023/06/13 05:35:34;;;;;;;3.65;1.20;;;19.10;99.90;;;;;;4995454;28;20041;-77
2023/06/13 05:38:00;;;;;;;2.85;1.33;;;19.40;98.90;;;;;;4992723;28;20041;-78
2023/06/13 05:40:25;;;;;;;3.45;1.40;;;19.60;99.20;;;;;;4994382;28;20394;-77
2023/06/13 05:42:51;;;;;;;3.33;1.08;;;19.70;98.60;;;;;;4992851;28;20458;-78
2023/06/13 05:45:17;;;;;;;3.55;1.15;;;19.90;98.40;;;;;;4984739;28;20116;-77
2023/06/13 05:47:43;;;;;;;3.85;1.27;;;20.10;98.10;;;;;;4990943;28;20048;-77
2023/06/13 05:50:09;;;;;;;3.97;1.30;;;20.20;98.30;;;;;;4992862;28;20535;-77
2023/06/13 05:52:35;;;;;;;2.28;1.27;;;20.40;97.40;;;;;;4994446;28;20399;-78
2023/06/13 05:55:01;;;;;;;3.25;0.98;;;20.60;97.00;;;;;;4991419;28;20038;-78
2023/06/13 05:57:45;;;;;;;3.25;1.13;;;20.80;97.10;;;;;;5008027;28;20038;-78
2023/06/13 06:00:13;;;;;;;2.88;1.45;;;21.00;97.00;;;;;;4994979;28;20033;-78
2023/06/13 06:02:46;;;;;;;2.53;1.13;;;21.10;96.70;;;;;;5010601;28;20180;-79
2023/06/13 06:05:11;;;;;;;2.42;0.93;;;21.20;96.20;;;;;;4996842;28;20046;-78
2023/06/13 06:07:38;;;;;;;2.90;1.20;;;21.30;95.70;;;;;;4980842;28;20054;-78
2023/06/13 06:10:07;;;;;;;3.10;1.10;;;21.50;95.80;;;;;;5012197;28;20106;-78
2023/06/13 06:12:35;;;;;;;2.25;1.17;;;21.50;95.80;;;;;;5012874;28;20699;-78
2023/06/13 06:15:01;;;;;;;1.90;1.00;;;21.70;95.60;;;;;;5029876;28;20037;-78
2023/06/13 06:17:27;;;;;;;2.28;1.00;;;21.70;95.50;;;;;;4993763;28;20042;-78
2023/06/13 06:19:53;;;;;;;3.55;1.35;;;21.90;95.40;;;;;;4997287;28;20052;-78
2023/06/13 06:22:19;;;;;;;2.63;1.10;;;22.00;95.10;;;;;;4994542;28;20050;-78
2023/06/13 06:24:45;;;;;;;4.63;1.17;;;22.20;95.00;;;;;;4996728;28;20060;-78
2023/06/13 06:27:13;;;;;;;3.20;1.48;;;22.40;95.20;;;;;;4995027;28;20807;-78
2023/06/13 06:29:42;;;;;;;3.23;1.20;;;22.50;95.00;;;;;;4993669;28;20103;-78
2023/06/13 06:32:08;;;;;;;2.00;1.13;;;22.50;94.50;;;;;;4996670;28;20067;-78
2023/06/13 06:34:33;;;;;;;4.30;1.30;;;22.30;94.80;;;;;;4998407;28;20030;-79
2023/06/13 06:37:00;;;;;;;2.38;1.00;;;22.70;94.80;;;;;;5028202;28;20691;-78
2023/06/13 06:39:26;;;;;;;3.28;1.30;;;23.00;94.50;;;;;;4995291;28;20499;-79
2023/06/13 06:41:51;;;;;;;2.60;1.20;;;23.10;94.40;;;;;;4995972;28;20036;-78
2023/06/13 06:44:27;;;;;;;2.33;1.10;;;23.30;94.10;;;;;;4981745;28;20038;-78
2023/06/13 06:46:53;;;;;;;2.33;1.00;;;23.30;94.20;;;;;;4994114;28;20041;-78
2023/06/13 06:49:19;;;;;;;3.05;1.27;;;23.40;94.00;;;;;;4979827;28;20061;-78
2023/06/13 06:51:44;;;;;;;2.20;1.00;;;23.30;94.00;;;;;;4979911;28;20042;-78
2023/06/13 06:54:10;;;;;;;3.92;1.73;;;23.30;93.70;;;;;;4996203;28;20069;-78
2023/06/13 06:56:36;;;;;;;2.90;1.00;;;23.30;94.00;;;;;;5027249;28;20100;-79
2023/06/13 06:59:01;;;;;;;2.28;1.10;;;23.50;93.80;;;;;;4998176;28;20482;-78
2023/06/13 07:01:27;;;;;;;3.30;1.00;;;23.60;94.00;;;;;;4997261;28;20108;-78
2023/06/13 07:03:53;;;;;;;2.10;1.02;;;24.00;93.80;;;;;;4997367;28;20030;-77
2023/06/13 07:06:19;;;;;;;1.70;0.90;;;24.20;93.80;;;;;;4978334;28;20049;-78
2023/06/13 07:08:44;;;;;;;2.88;0.90;;;24.40;93.60;;;;;;4986862;28;20050;-78
2023/06/13 07:11:10;;;;;;;2.20;1.13;;;24.50;93.20;;;;;;4992867;28;20069;-78
2023/06/13 07:13:36;;;;;;;2.95;0.95;;;24.50;93.30;;;;;;5029170;28;20108;-78
2023/06/13 07:16:02;;;;;;;3.70;0.65;;;24.20;93.40;;;;;;4996506;28;20113;-77
2023/06/13 07:18:29;;;;;;;2.03;1.00;;;24.70;93.30;;;;;;4991240;28;20085;-78
2023/06/13 07:20:56;;;;;;;2.55;1.00;;;24.80;92.60;;;;;;4997967;28;20112;-79
2023/06/13 07:23:21;;;;;;;1.92;0.80;;;25.00;93.30;;;;;;4995443;28;20104;-79
2023/06/13 07:25:47;;;;;;;2.22;1.08;;;25.20;93.10;;;;;;4995599;28;20650;-79
2023/06/13 07:28:13;;;;;;;1.83;0.88;;;25.10;92.80;;;;;;4988321;28;20030;-79
2023/06/13 07:30:38;;;;;;;1.42;0.70;;;25.50;92.90;;;;;;4990846;28;20402;-80
2023/06/13 07:33:04;;;;;;;3.70;0.90;;;25.50;92.30;;;;;;4978488;28;20497;-79
2023/06/13 07:35:29;;;;;;;3.80;0.82;;;25.40;92.40;;;;;;4996878;28;20884;-79
2023/06/13 07:37:56;;;;;;;3.38;1.17;;;25.60;92.40;;;;;;4994980;28;20205;-79
2023/06/13 07:40:23;;;;;;;3.05;0.70;;;25.60;92.00;;;;;;4992202;28;20044;-79
2023/06/13 07:42:49;;;;;;;2.17;1.05;;;25.90;92.40;;;;;;5010789;28;20038;-79
2023/06/13 07:45:15;;;;;;;3.70;1.17;;;26.20;92.30;;;;;;4979920;28;20255;-80
2023/06/13 07:47:41;;;;;;;2.60;0.80;;;26.30;91.70;;;;;;5011110;28;20041;-79
2023/06/13 07:50:07;;;;;;;2.85;0.80;;;26.20;92.20;;;;;;4993320;28;20046;-78
2023/06/13 07:52:33;;;;;;;1.77;0.70;;;26.30;92.10;;;;;;4992752;28;20104;-80
2023/06/13 07:54:59;;;;;;;1.77;0.70;;;26.30;92.00;;;;;;4996421;28;20038;-78
2023/06/13 07:57:25;;;;;;;1.70;0.85;;;26.40;92.00;;;;;;4995134;28;20049;-80
2023/06/13 07:59:50;;;;;;;1.75;0.80;;;26.30;91.90;;;;;;4993750;28;20034;-79
2023/06/13 08:02:16;;;;;;;2.10;1.00;;;26.60;92.10;;;;;;5013037;28;20030;-80
2023/06/13 08:04:42;;;;;;;2.22;0.70;;;26.90;91.60;;;;;;4994803;28;20048;-79
2023/06/13 08:07:09;;;;;;;3.97;0.70;;;26.70;91.10;;;;;;4994636;28;20802;-79
2023/06/13 08:09:35;;;;;;;1.88;0.93;;;26.30;91.20;;;;;;5007829;28;20041;-79
2023/06/13 08:12:00;;;;;;;1.35;0.70;;;26.80;91.40;;;;;;4994330;28;20042;-80
2023/06/13 08:14:29;;;;;;;1.45;0.80;;;26.60;91.40;;;;;;5026021;28;20917;-79
2023/06/13 08:16:55;;;;;;;1.95;0.80;;;26.90;91.20;;;;;;4993557;28;20041;-80
2023/06/13 08:19:20;;;;;;;1.98;0.70;;;27.50;91.50;;;;;;4996825;28;20187;-80
2023/06/13 08:21:47;;;;;;;2.22;0.70;;;27.50;91.10;;;;;;4994881;28;20052;-79
2023/06/13 08:24:14;;;;;;;2.67;0.60;;;27.30;90.80;;;;;;5011324;28;20034;-79
2023/06/13 08:26:39;;;;;;;1.35;0.63;;;27.30;90.60;;;;;;4976350;28;20521;-79
2023/06/13 08:29:06;;;;;;;2.85;0.70;;;27.40;90.10;;;;;;4994842;28;20026;-79
2023/06/13 08:31:32;;;;;;;1.63;0.60;;;27.40;90.50;;;;;;4995485;28;20041;-79
2023/06/13 08:34:01;;;;;;;1.52;0.65;;;27.70;90.00;;;;;;4996067;28;20552;-80
2023/06/13 08:36:27;;;;;;;2.33;0.95;;;27.20;88.40;;;;;;4977150;28;20041;-79
2023/06/13 08:38:56;;;;;;;1.58;0.77;;;27.40;90.40;;;;;;4991569;28;20327;-80
2023/06/13 08:41:22;;;;;;;1.27;0.60;;;28.10;90.20;;;;;;4995653;28;20040;-80
2023/06/13 08:43:49;;;;;;;1.25;0.63;;;28.00;86.70;;;;;;4994717;28;20411;-80
2023/06/13 08:46:14;;;;;;;2.30;0.60;;;28.20;87.40;;;;;;4986307;28;20376;-79
2023/06/13 08:48:41;;;;;;;2.22;0.50;;;28.30;85.80;;;;;;4993458;28;20112;-80
2023/06/13 08:51:13;;;;;;;1.25;0.60;;;28.40;85.60;;;;;;4994490;28;20049;-80
2023/06/13 08:53:47;;;;;;;1.58;0.90;;;28.30;87.40;;;;;;5010185;28;20034;-80
2023/06/13 08:56:13;;;;;;;1.45;0.50;;;28.40;85.70;;;;;;4991401;28;20392;-80
2023/06/13 08:58:43;;;;;;;1.52;0.60;;;28.30;85.50;;;;;;5008345;28;20044;-80
2023/06/13 09:01:09;;;;;;;2.30;0.50;;;28.20;85.60;;;;;;4993811;28;20042;-80
2023/06/13 09:03:37;;;;;;;1.15;0.50;;;28.50;86.20;;;;;;4993806;28;20018;-80
2023/06/13 09:06:05;;;;;;;2.65;0.50;;;28.90;85.60;;;;;;5025948;28;20139;-79
2023/06/13 09:08:32;;;;;;;1.70;0.47;;;29.10;84.90;;;;;;4993898;28;20026;-80
2023/06/13 09:10:59;;;;;;;3.15;0.60;;;28.90;84.70;;;;;;4997518;28;20141;-80
2023/06/13 09:13:27;;;;;;;1.48;0.52;;;28.70;84.90;;;;;;4994053;28;20580;-79
2023/06/13 09:15:53;;;;;;;3.13;0.68;;;29.00;85.50;;;;;;4977625;28;20566;-80
2023/06/13 09:18:21;;;;;;;3.20;0.50;;;28.90;83.90;;;;;;5026838;28;20041;-80
2023/06/13 09:20:47;;;;;;;1.45;0.60;;;28.70;84.60;;;;;;4990930;28;20042;-80
2023/06/13 09:23:15;;;;;;;1.23;0.55;;;29.20;85.10;;;;;;4996163;28;21044;-79
2023/06/13 09:25:44;;;;;;;3.33;0.50;;;28.80;82.90;;;;;;4977059;28;20109;-81
2023/06/13 09:28:47;;;;;;;1.35;0.60;;;29.00;84.00;;;;;;4992932;28;20034;-79
2023/06/13 09:31:13;;;;;;;1.60;0.50;;;29.30;84.60;;;;;;4994990;28;20041;-79
2023/06/13 09:33:40;;;;;;;1.83;1.00;;;28.90;81.80;;;;;;4995632;28;20553;-80
2023/06/13 09:36:06;;;;;;;1.73;0.70;;;28.60;81.20;;;;;;4994417;28;20038;-79
2023/06/13 09:38:37;;;;;;;1.30;0.50;;;28.60;80.60;;;;;;4993306;28;20620;-80
2023/06/13 09:41:04;;;;;;;1.65;0.60;;;28.70;80.70;;;;;;4976759;28;20438;-80
2023/06/13 09:43:30;;;;;;;1.50;0.55;;;29.20;82.90;;;;;;4994001;28;20038;-80
2023/06/13 09:45:56;;;;;;;2.28;0.70;;;29.50;80.80;;;;;;4994879;28;20053;-80
2023/06/13 09:48:22;;;;;;;2.05;0.75;;;29.70;81.50;;;;;;5009244;28;20133;-80
2023/06/13 09:50:51;;;;;;;1.38;0.52;;;29.20;80.20;;;;;;4975003;28;20049;-80
2023/06/13 09:53:17;;;;;;;1.17;0.50;;;29.10;81.70;;;;;;4993785;28;20644;-80
2023/06/13 09:55:43;;;;;;;1.48;0.60;;;29.40;80.80;;;;;;4994702;28;20213;-80
2023/06/13 09:58:10;;;;;;;1.98;0.60;;;29.70;80.50;;;;;;4992551;28;20126;-80
2023/06/13 10:00:36;;;;;;;2.92;0.60;;;29.90;80.40;;;;;;4992466;28;20583;-80
2023/06/13 10:03:02;;;;;;;1.20;0.50;;;30.00;81.60;;;;;;5025065;28;20030;-80
2023/06/13 10:05:28;;;;;;;0.98;0.47;;;30.40;81.90;;;;;;5025204;28;20129;-79
2023/06/13 10:07:55;;;;;;;1.95;0.55;;;29.90;80.90;;;;;;4993099;28;20065;-79
2023/06/13 10:10:21;;;;;;;1.13;0.60;;;30.10;80.80;;;;;;4982815;28;20174;-80
2023/06/13 10:13:03;;;;;;;2.28;0.77;;;30.00;80.90;;;;;;4993513;28;20644;-80
2023/06/13 10:15:42;;;;;;;2.83;0.90;;;29.30;78.50;;;;;;4993135;28;20033;-79
2023/06/13 10:18:12;;;;;;;2.97;0.70;;;29.20;80.90;;;;;;4991641;28;20398;-80
2023/06/13 10:20:39;;;;;;;1.20;0.55;;;29.70;80.60;;;;;;5025837;28;20042;-80
2023/06/13 10:23:06;;;;;;;2.17;0.57;;;30.20;80.80;;;;;;4990015;28;20084;-81
2023/06/13 10:25:34;;;;;;;1.02;0.50;;;30.00;79.80;;;;;;4991337;28;20225;-80
2023/06/13 10:28:10;;;;;;;1.33;0.60;;;29.90;80.70;;;;;;4993932;28;20584;-80
2023/06/13 10:30:56;;;;;;;1.33;0.57;;;30.40;80.50;;;;;;4990897;28;20080;-80
2023/06/13 10:33:37;;;;;;;1.60;0.60;;;30.40;80.70;;;;;;4985892;28;20390;-80
2023/06/13 10:36:31;;;;;;;1.40;0.70;;;30.30;79.90;;;;;;4991449;28;20451;-79
2023/06/13 10:39:41;;;;;;;1.70;0.85;;;29.80;79.90;;;;;;4991728;28;20049;-80
2023/06/13 10:42:19;;;;;;;1.55;0.70;;;29.40;78.40;;;;;;5008077;28;20556;-80
2023/06/13 10:44:58;;;;;;;1.87;1.03;;;29.80;79.50;;;;;;4993433;28;20041;-81
2023/06/13 10:47:27;;;;;;;;;;;29.60;79.10;;;;;;4993737;28;20125;-80
2023/06/13 10:49:53;;;;;;;1.65;0.50;;;30.00;78.90;;;;;;5024893;28;19918;-80
2023/06/13 10:52:20;;;;;;;1.35;0.73;;;30.30;79.50;;;;;;5029014;28;20048;-80
2023/06/13 10:54:53;;;;;;;1.85;0.60;;;30.20;80.00;;;;;;4997462;28;20029;-81
2023/06/13 10:57:19;;;;;;;1.42;0.70;;;30.30;78.50;;;;;;4998377;28;20049;-81
2023/06/13 10:59:47;;;;;;;1.25;0.60;;;30.00;78.50;;;;;;4992187;28;20562;-80
2023/06/13 11:02:14;;;;;;;1.67;0.60;;;30.20;78.60;;;;;;5011729;28;20077;-80
2023/06/13 11:04:47;;;;;;;3.25;0.88;;;30.50;78.60;;;;;;4997745;28;20145;-81
2023/06/13 11:07:25;;;;;;;1.20;0.60;;;30.50;77.30;;;;;;4998687;28;20030;-80
2023/06/13 11:10:12;;;;;;;2.60;0.80;;;30.00;78.30;;;;;;4995247;28;20140;-80
2023/06/13 11:12:38;;;;;;;1.80;0.70;;;30.00;78.40;;;;;;4996550;28;20052;-80
2023/06/13 11:15:04;;;;;;;2.03;0.60;;;30.30;79.40;;;;;;4998837;28;20074;-80
2023/06/13 11:17:30;;;;;;;1.85;0.90;;;30.40;78.50;;;;;;4997582;28;20928;-81
2023/06/13 11:19:56;;;;;;;1.77;0.80;;;30.10;78.50;;;;;;4993624;28;20034;-80
2023/06/13 11:22:22;;;;;;;1.92;0.82;;;30.00;77.90;;;;;;4986310;28;20046;-81
2023/06/13 11:24:53;;;;;;;1.85;0.93;;;30.40;76.90;;;;;;4996914;28;20034;-80
2023/06/13 11:27:19;;;;;;;1.20;0.60;;;30.20;76.80;;;;;;4996973;28;20033;-81
2023/06/13 11:29:45;;;;;;;2.85;0.77;;;30.50;77.30;;;;;;4991653;28;20450;-81
2023/06/13 11:32:12;;;;;;;1.65;0.77;;;30.10;77.50;;;;;;5003613;28;20038;-80
2023/06/13 11:34:43;;;;;;;2.30;0.70;;;30.10;77.80;;;;;;4997048;28;20088;-80
2023/06/13 11:37:27;;;;;;;1.85;0.80;;;30.30;77.00;;;;;;4993582;28;20561;-80
2023/06/13 11:39:55;;;;;;;2.08;0.60;;;30.30;78.00;;;;;;4993442;28;20065;-80
2023/06/13 11:42:22;;;;;;;2.80;0.93;;;30.00;75.80;;;;;;4997094;28;20140;-81
2023/06/13 11:44:49;;;;;;;1.77;0.85;;;29.60;76.40;;;;;;4995141;28;20021;-79
2023/06/13 11:47:15;;;;;;;2.25;0.90;;;29.90;76.90;;;;;;4996322;28;20049;-80
2023/06/13 11:49:42;;;;;;;1.52;0.68;;;29.90;75.50;;;;;;4975458;28;20026;-80
2023/06/13 11:52:15;;;;;;;1.92;0.70;;;30.30;76.20;;;;;;4993741;28;20030;-80
2023/06/13 11:54:46;;;;;;;1.75;0.60;;;30.00;75.90;;;;;;4994842;28;20554;-80
2023/06/13 11:57:13;;;;;;;3.00;0.60;;;30.50;76.80;;;;;;4995993;28;20045;-80
2023/06/13 11:59:39;;;;;;;2.80;0.70;;;30.30;77.60;;;;;;4992901;28;20037;-80
2023/06/13 12:02:06;;;;;;;1.90;0.60;;;30.90;75.70;;;;;;4993778;28;20375;-80
2023/06/13 12:04:32;;;;;;;1.25;0.60;;;30.50;76.50;;;;;;4995426;28;20471;-80
2023/06/13 12:07:01;;;;;;;2.25;0.70;;;30.60;77.40;;;;;;4992631;28;20045;-80
2023/06/13 12:09:27;;;;;;;1.83;0.70;;;30.30;77.10;;;;;;4993258;28;20423;-81
2023/06/13 12:11:53;;;;;;;1.83;0.70;;;30.40;76.80;;;;;;4996171;28;20030;-81
2023/06/13 12:14:20;;;;;;;2.45;0.68;;;30.40;77.60;;;;;;4993953;28;20088;-81
2023/06/13 12:16:51;;;;;;;2.25;0.60;;;30.40;77.50;;;;;;4992630;28;20316;-81
2023/06/13 12:19:21;;;;;;;2.03;0.70;;;30.20;77.90;;;;;;4990019;28;20049;-80
2023/06/13 12:21:51;;;;;;;2.28;0.60;;;30.30;77.70;;;;;;4968341;28;20080;-80
2023/06/13 12:24:19;;;;;;;2.50;0.77;;;30.50;78.70;;;;;;5027921;28;20085;-80
2023/06/13 12:26:47;;;;;;;2.35;0.70;;;30.50;78.40;;;;;;4978164;28;20175;-80
2023/06/13 12:29:13;;;;;;;2.08;0.60;;;30.30;77.80;;;;;;4990190;28;20045;-80
2023/06/13 12:31:43;;;;;;;2.50;0.63;;;30.10;77.10;;;;;;4995786;28;20560;-80
2023/06/13 12:34:26;;;;;;;;;;;30.20;78.00;;;;;;5027451;28;20042;-80
2023/06/13 12:36:56;;;;;;;2.15;0.60;;;30.30;77.40;;;;;;4996372;28;19913;-80
2023/06/13 12:39:22;;;;;;;1.92;0.70;;;30.40;77.90;;;;;;4992653;28;20379;-80
2023/06/13 12:41:49;;;;;;;1.67;0.80;;;30.50;78.50;;;;;;4994970;28;20050;-80
2023/06/13 12:44:17;;;;;;;2.40;0.60;;;30.30;77.70;;;;;;4995434;28;20413;-81
2023/06/13 12:46:43;;;;;;;2.45;0.60;;;30.50;77.80;;;;;;5027498;28;20423;-80
2023/06/13 12:49:12;;;;;;;1.80;0.50;;;30.70;77.70;;;;;;4991343;28;20026;-81
2023/06/13 12:51:47;;;;;;;1.60;0.95;;;30.70;76.70;;;;;;4994945;28;20034;-81
2023/06/13 12:54:14;;;;;;;1.60;1.00;;;30.40;78.60;;;;;;4993864;28;20462;-81